Time;durP1;ratioP1;P1;durP2;ratioP2;P2;SDS_P1;SDS_P2;PMS_P1;PMS_P2;Temp;Humidity;BMP_temperature;BMP_pressure;BME280_temperature;BME280_humidity;BME280_pressure;Samples;Min_cycle;Max_cycle;Signal;HPM_P1;HPM_P2
2023/06/08 00:01:10;;;;;;;4.50;4.10;;;;;;;17.59;64.26;94910.81;5118591;28;20256;-74
2023/06/08 00:03:43;;;;;;;4.43;4.03;;;;;;;17.54;64.37;94912.03;5118277;28;20176;-74
2023/06/08 00:06:15;;;;;;;5.72;4.18;;;;;;;17.51;64.70;94912.81;5117843;28;20698;-74
2023/06/08 00:08:45;;;;;;;6.68;4.28;;;;;;;17.48;64.67;94917.19;5118467;28;20196;-73
2023/06/08 00:11:13;;;;;;;4.43;4.03;;;;;;;17.44;64.92;94910.84;5117407;28;20275;-73
2023/06/08 00:13:41;;;;;;;7.18;3.83;;;;;;;17.42;64.53;94918.78;5118170;28;20187;-73
2023/06/08 00:16:13;;;;;;;4.93;4.10;;;;;;;17.40;64.75;94921.19;5118505;28;20192;-74
2023/06/08 00:18:44;;;;;;;4.18;3.78;;;;;;;17.38;64.64;94920.00;5118200;28;20287;-73
2023/06/08 00:21:12;;;;;;;4.22;3.92;;;;;;;17.35;64.92;94920.78;5117303;28;20253;-74
2023/06/08 00:23:40;;;;;;;4.75;4.13;;;;;;;17.31;64.54;94929.16;5117462;28;20228;-74
2023/06/08 00:26:08;;;;;;;3.92;3.60;;;;;;;17.25;64.77;94923.22;5118362;28;20179;-74
2023/06/08 00:28:36;;;;;;;3.80;3.47;;;;;;;17.24;65.15;94923.59;5118120;28;20191;-74
2023/06/08 00:31:03;;;;;;;3.78;3.25;;;;;;;17.21;65.09;94928.00;5118160;28;20195;-73
2023/06/08 00:33:31;;;;;;;4.32;3.35;;;;;;;17.18;64.70;94930.78;5117664;28;20196;-74
2023/06/08 00:36:02;;;;;;;3.92;3.53;;;;;;;17.16;64.86;94935.94;5116742;28;20256;-73
2023/06/08 00:38:33;;;;;;;3.90;3.60;;;;;;;17.11;64.81;94933.56;5117929;28;20188;-73
2023/06/08 00:41:02;;;;;;;3.65;3.35;;;;;;;17.07;65.29;94925.22;5099443;28;20254;-73
2023/06/08 00:43:30;;;;;;;4.00;3.70;;;;;;;17.05;64.68;94919.22;5117739;28;20196;-73
2023/06/08 00:45:59;;;;;;;3.80;3.35;;;;;;;17.01;64.67;94921.22;5116964;28;20204;-73
2023/06/08 00:48:26;;;;;;;4.45;3.55;;;;;;;16.98;64.21;94917.22;5116953;28;20238;-72
2023/06/08 00:50:55;;;;;;;4.68;3.10;;;;;;;16.99;64.11;94915.25;5115871;28;20214;-73
2023/06/08 00:53:29;;;;;;;3.83;3.47;;;;;;;16.94;64.01;94919.22;5117639;28;20199;-73
2023/06/08 00:55:57;;;;;;;4.85;3.50;;;;;;;16.92;64.24;94918.03;5117294;28;20188;-74
2023/06/08 00:58:25;;;;;;;3.50;3.20;;;;;;;16.92;64.04;94913.28;5118696;28;20187;-73
2023/06/08 01:00:59;;;;;;;3.47;3.17;;;;;;;16.88;63.69;94909.66;5118395;28;20188;-74
2023/06/08 01:03:35;;;;;;;5.57;3.50;;;;;;;16.80;64.30;94906.09;5117033;28;20223;-74
2023/06/08 01:06:08;;;;;;;3.70;3.00;;;;;;;16.75;64.37;94917.63;5117635;28;20203;-74
2023/06/08 01:08:53;;;;;;;3.65;3.03;;;;;;;16.74;64.75;94913.25;5117484;28;20187;-75
2023/06/08 01:11:34;;;;;;;4.35;3.00;;;;;;;16.72;64.48;94912.81;5117706;28;20179;-74
2023/06/08 01:14:13;;;;;;;4.25;3.35;;;;;;;16.65;64.70;94918.38;5117778;28;20195;-74
2023/06/08 01:16:49;;;;;;;3.83;3.38;;;;;;;16.59;65.75;94915.19;5116727;28;20572;-74
2023/06/08 01:19:28;;;;;;;5.20;3.55;;;;;;;16.59;66.13;94914.38;5116169;28;20611;-74
2023/06/08 01:22:17;;;;;;;4.00;3.28;;;;;;;16.59;65.76;94915.19;5116484;28;20215;-74
2023/06/08 01:24:49;;;;;;;4.43;3.33;;;;;;;16.57;65.46;94925.13;5117114;28;20231;-73
2023/06/08 01:27:20;;;;;;;4.25;3.38;;;;;;;16.54;65.99;94923.13;5117048;28;20184;-73
2023/06/08 01:29:51;;;;;;;3.40;3.08;;;;;;;16.52;65.64;94925.50;5116115;28;20207;-73
2023/06/08 01:32:20;;;;;;;3.55;3.25;;;;;;;16.50;66.43;94928.69;5116684;28;20195;-74
2023/06/08 01:34:48;;;;;;;3.42;3.13;;;;;;;16.47;65.95;94926.69;5116545;28;20196;-74
2023/06/08 01:37:21;;;;;;;3.47;3.17;;;;;;;16.44;66.34;94927.47;5116237;28;20595;-73
2023/06/08 01:40:02;;;;;;;3.70;3.30;;;;;;;16.42;66.29;94926.31;5116649;28;20198;-73
2023/06/08 01:42:31;;;;;;;3.97;3.08;;;;;;;16.41;66.57;94919.13;5116069;28;20260;-74
2023/06/08 01:45:01;;;;;;;3.42;3.13;;;;;;;16.37;66.55;94921.91;5116680;28;20191;-75
2023/06/08 01:47:32;;;;;;;4.55;3.33;;;;;;;16.37;66.94;94922.69;5116572;28;20628;-73
2023/06/08 01:50:01;;;;;;;3.78;2.95;;;;;;;16.36;66.64;94928.66;5098886;28;20200;-73
2023/06/08 01:52:30;;;;;;;4.70;3.10;;;;;;;16.40;66.72;94928.66;5115716;28;20192;-74
2023/06/08 01:54:59;;;;;;;3.58;3.22;;;;;;;16.35;67.21;94921.50;5116059;28;20191;-74
2023/06/08 01:57:26;;;;;;;3.35;3.05;;;;;;;16.32;66.69;94930.63;5115223;28;20207;-74
2023/06/08 01:59:54;;;;;;;3.97;3.22;;;;;;;16.29;66.94;94917.50;5115537;28;20211;-74
2023/06/08 02:02:21;;;;;;;3.53;3.10;;;;;;;16.24;67.16;94920.69;5114323;28;20223;-74
2023/06/08 02:04:52;;;;;;;3.92;2.90;;;;;;;16.21;67.50;94927.81;5116086;28;20183;-74
2023/06/08 02:07:21;;;;;;;6.07;3.35;;;;;;;16.17;66.66;94915.09;5116034;28;20611;-73
2023/06/08 02:09:47;;;;;;;3.08;2.75;;;;;;;16.13;67.01;94915.88;5116463;28;20199;-74
2023/06/08 02:12:17;;;;;;;3.85;3.38;;;;;;;16.13;66.98;94912.28;5115427;28;20195;-74
2023/06/08 02:14:46;;;;;;;4.60;3.40;;;;;;;16.14;67.14;94908.31;5115447;28;20188;-73
2023/06/08 02:17:25;;;;;;;3.78;3.15;;;;;;;16.10;67.40;94911.09;5116149;28;20258;-73
2023/06/08 02:19:54;;;;;;;4.30;3.38;;;;;;;16.10;67.55;94904.72;5116145;28;20199;-73
2023/06/08 02:22:22;;;;;;;3.03;2.83;;;;;;;16.10;67.42;94904.72;5116360;28;20208;-74
2023/06/08 02:24:53;;;;;;;4.55;3.58;;;;;;;16.09;67.63;94906.72;5115953;28;20231;-74
2023/06/08 02:27:22;;;;;;;3.70;3.15;;;;;;;16.07;68.19;94911.06;5115443;28;20196;-73
2023/06/08 02:29:53;;;;;;;4.63;3.50;;;;;;;16.05;67.97;94903.13;5115212;28;20199;-74
2023/06/08 02:32:20;;;;;;;4.10;3.33;;;;;;;16.04;68.10;94911.84;5115686;28;20188;-74
2023/06/08 02:34:55;;;;;;;4.10;3.25;;;;;;;16.03;68.26;94904.72;5114883;28;20616;-72
2023/06/08 02:37:24;;;;;;;4.57;3.80;;;;;;;16.01;68.47;94907.06;5115873;28;20179;-73
2023/06/08 02:39:51;;;;;;;3.80;3.50;;;;;;;15.99;68.88;94904.69;5115779;28;20200;-73
2023/06/08 02:42:19;;;;;;;5.13;3.50;;;;;;;15.99;69.00;94909.47;5114896;28;20227;-73
2023/06/08 02:44:49;;;;;;;3.90;3.60;;;;;;;15.95;68.88;94901.09;5115526;28;20599;-73
2023/06/08 02:47:18;;;;;;;4.03;3.10;;;;;;;15.93;68.76;94908.25;5114790;28;20191;-73
2023/06/08 02:49:45;;;;;;;3.45;3.15;;;;;;;15.93;68.96;94913.81;5115096;28;20226;-71
2023/06/08 02:52:13;;;;;;;5.28;3.35;;;;;;;15.93;68.61;94914.59;5114743;28;20218;-71
2023/06/08 02:54:43;;;;;;;4.07;3.45;;;;;;;15.95;69.32;94908.66;5114740;28;20191;-70
2023/06/08 02:57:11;;;;;;;3.78;3.45;;;;;;;15.93;69.47;94911.81;5115666;28;20240;-72
2023/06/08 02:59:38;;;;;;;5.00;3.67;;;;;;;15.89;69.12;94917.34;5114762;28;20199;-71
2023/06/08 03:02:10;;;;;;;3.88;3.58;;;;;;;15.86;69.38;94922.91;5114610;28;20228;-71
2023/06/08 03:04:43;;;;;;;3.53;3.22;;;;;;;15.82;69.61;94922.88;5115567;28;20194;-72
2023/06/08 03:07:15;;;;;;;3.75;3.45;;;;;;;15.79;69.82;94923.66;5114559;28;20244;-70
2023/06/08 03:09:44;;;;;;;6.28;4.15;;;;;;;15.79;69.98;94922.88;5114568;28;20196;-71
2023/06/08 03:12:15;;;;;;;5.90;4.68;;;;;;;15.79;69.70;94920.09;5114775;28;20195;-71
2023/06/08 03:14:43;;;;;;;5.45;4.95;;;;;;;15.77;69.82;94911.34;5118518;28;20187;-71
2023/06/08 03:17:13;;;;;;;6.20;5.07;;;;;;;15.79;70.09;94922.88;5118373;28;20191;-73
2023/06/08 03:19:42;;;;;;;5.60;4.82;;;;;;;15.77;70.03;94914.94;5119531;28;20191;-71
2023/06/08 03:22:11;;;;;;;5.85;4.75;;;;;;;15.75;70.27;94908.94;5118770;28;20215;-70
2023/06/08 03:24:38;;;;;;;7.05;5.03;;;;;;;15.77;69.53;94909.38;5118850;28;20246;-70
2023/06/08 03:27:06;;;;;;;7.60;5.32;;;;;;;15.77;69.60;94917.72;5118404;28;20203;-71
2023/06/08 03:29:37;;;;;;;7.18;4.70;;;;;;;15.77;70.27;94914.94;5119120;28;20223;-70
2023/06/08 03:32:06;;;;;;;6.35;5.00;;;;;;;15.76;70.04;94916.13;5118363;28;20198;-71
2023/06/08 03:34:38;;;;;;;5.05;4.47;;;;;;;15.77;69.84;94922.47;5118679;28;20203;-71
2023/06/08 03:37:07;;;;;;;7.38;4.70;;;;;;;15.77;69.82;94923.28;5119141;28;20192;-70
2023/06/08 03:39:36;;;;;;;6.45;4.32;;;;;;;15.78;70.47;94924.06;5119398;28;20199;-72
2023/06/08 03:42:05;;;;;;;5.57;4.70;;;;;;;15.77;71.49;94933.59;5118065;28;20220;-70
2023/06/08 03:44:33;;;;;;;7.18;4.70;;;;;;;15.77;71.54;94931.63;5118391;28;20291;-70
2023/06/08 03:47:00;;;;;;;6.30;4.32;;;;;;;15.79;71.37;94932.00;5118175;28;20192;-70
2023/06/08 03:49:28;;;;;;;6.43;4.38;;;;;;;15.77;71.65;94926.06;5118011;28;20203;-70
2023/06/08 03:51:58;;;;;;;6.38;4.25;;;;;;;15.77;71.15;94933.59;5118142;28;20210;-71
2023/06/08 03:54:26;;;;;;;4.70;4.15;;;;;;;15.78;71.84;94933.19;5118934;28;20202;-70
2023/06/08 03:56:54;;;;;;;4.57;3.83;;;;;;;15.81;71.99;94934.41;5118046;28;20195;-71
2023/06/08 03:59:21;;;;;;;6.97;4.30;;;;;;;15.80;71.01;94932.81;5118803;28;20201;-71
2023/06/08 04:01:50;;;;;;;5.75;5.00;;;;;;;15.79;70.37;94936.78;5118896;28;20312;-69
2023/06/08 04:04:18;;;;;;;6.28;4.60;;;;;;;15.81;70.19;94943.56;5117809;28;20187;-69
2023/06/08 04:06:45;;;;;;;6.22;5.30;;;;;;;15.83;70.19;94937.59;5117560;28;20203;-71
2023/06/08 04:09:14;;;;;;;6.25;5.38;;;;;;;15.86;70.57;94943.16;5117887;28;20204;-70
2023/06/08 04:11:42;;;;;;;5.55;5.05;;;;;;;15.86;70.13;94945.16;5117887;28;20195;-72
2023/06/08 04:14:11;;;;;;;5.57;4.70;;;;;;;15.86;70.36;94936.81;5118606;28;20215;-72
2023/06/08 04:16:41;;;;;;;8.27;4.75;;;;;;;15.85;69.90;94938.81;5118043;28;20658;-72
2023/06/08 04:19:10;;;;;;;4.82;4.43;;;;;;;15.87;70.19;94930.88;5118277;28;20211;-72
2023/06/08 04:21:38;;;;;;;6.68;4.63;;;;;;;15.89;71.28;94944.38;5118006;28;20287;-72
2023/06/08 04:24:06;;;;;;;4.15;3.75;;;;;;;15.87;70.78;94939.22;5117550;28;20234;-72
2023/06/08 04:26:38;;;;;;;4.45;4.05;;;;;;;15.85;70.03;94943.56;5117113;28;20260;-72
2023/06/08 04:29:04;;;;;;;5.03;3.92;;;;;;;15.83;70.45;94935.63;5118105;28;20200;-71
2023/06/08 04:31:32;;;;;;;4.30;3.88;;;;;;;15.84;69.89;94933.63;5118123;28;20196;-72
2023/06/08 04:33:58;;;;;;;4.47;4.10;;;;;;;15.87;70.05;94944.78;5117535;28;20203;-72
2023/06/08 04:36:27;;;;;;;3.95;3.63;;;;;;;15.91;71.43;94933.69;5117923;28;20199;-72
2023/06/08 04:38:56;;;;;;;4.80;4.32;;;;;;;15.91;72.11;94936.47;5117796;28;20237;-72
2023/06/08 04:41:28;;;;;;;6.85;4.20;;;;;;;15.92;71.17;94934.47;5117874;28;20184;-71
2023/06/08 04:44:01;;;;;;;7.15;4.20;;;;;;;15.97;70.78;94936.84;5116625;28;20314;-72
2023/06/08 04:46:30;;;;;;;5.63;4.03;;;;;;;15.99;72.13;94938.06;5117106;28;20214;-72
2023/06/08 04:48:58;;;;;;;5.22;4.00;;;;;;;15.99;72.03;94937.28;5117686;28;20184;-71
2023/06/08 04:51:29;;;;;;;5.80;4.40;;;;;;;15.98;72.19;94942.06;5117675;28;20391;-72
2023/06/08 04:53:59;;;;;;;7.47;4.25;;;;;;;15.99;72.73;94935.28;5117043;28;20192;-71
2023/06/08 04:56:29;;;;;;;6.40;4.38;;;;;;;16.00;72.37;94936.09;5117588;28;20238;-71
2023/06/08 04:59:04;;;;;;;6.22;4.50;;;;;;;16.02;71.91;94940.06;5117489;28;20627;-72
2023/06/08 05:01:32;;;;;;;5.32;4.40;;;;;;;16.05;70.88;94935.69;5117553;28;20210;-73
2023/06/08 05:03:58;;;;;;;4.78;4.30;;;;;;;16.06;70.22;94934.53;5116684;28;20223;-72
2023/06/08 05:06:27;;;;;;;5.38;4.28;;;;;;;16.11;70.34;94934.13;5117093;28;20188;-72
2023/06/08 05:08:55;;;;;;;6.30;4.80;;;;;;;16.15;71.23;94934.16;5116482;28;20192;-72
2023/06/08 05:11:23;;;;;;;5.68;4.43;;;;;;;16.18;71.54;94938.94;5117308;28;20233;-72
2023/06/08 05:13:53;;;;;;;5.05;4.55;;;;;;;16.22;72.05;94934.97;5117214;28;20184;-72
2023/06/08 05:16:23;;;;;;;5.30;4.78;;;;;;;16.26;70.69;94940.56;5117458;28;20187;-72
2023/06/08 05:18:53;;;;;;;8.30;4.80;;;;;;;16.29;70.42;94934.19;5116351;28;20195;-72
2023/06/08 05:21:21;;;;;;;4.72;4.32;;;;;;;16.31;69.43;94934.63;5117091;28;20279;-72
2023/06/08 05:23:49;;;;;;;5.10;4.55;;;;;;;16.37;69.10;94941.38;5117199;28;20258;-72
2023/06/08 05:26:19;;;;;;;5.65;4.85;;;;;;;16.40;69.45;94934.22;5116721;28;20203;-71
2023/06/08 05:28:47;;;;;;;6.13;4.30;;;;;;;16.44;69.29;94937.81;5116674;28;20342;-71
2023/06/08 05:31:15;;;;;;;5.45;4.63;;;;;;;16.49;69.36;94945.81;5115922;28;20196;-71
2023/06/08 05:33:47;;;;;;;4.70;4.28;;;;;;;16.49;69.93;94949.38;5116916;28;20184;-71
2023/06/08 05:36:15;;;;;;;5.22;4.20;;;;;;;16.53;69.06;94946.59;5116513;28;20195;-72
2023/06/08 05:38:43;;;;;;;5.50;5.00;;;;;;;16.56;68.87;94940.25;5116481;28;20199;-72
2023/06/08 05:41:11;;;;;;;5.38;4.82;;;;;;;16.60;69.37;94943.84;5116602;28;20183;-71
2023/06/08 05:43:39;;;;;;;5.03;4.63;;;;;;;16.63;69.31;94951.41;5115698;28;20215;-71
2023/06/08 05:46:07;;;;;;;7.50;5.10;;;;;;;16.68;69.77;94945.44;5116827;28;20202;-71
2023/06/08 05:48:34;;;;;;;5.57;4.43;;;;;;;16.72;68.23;94943.44;5116329;28;20180;-71
2023/06/08 05:51:02;;;;;;;6.28;4.68;;;;;;;16.74;68.23;94941.09;5116571;28;20180;-71
2023/06/08 05:53:30;;;;;;;5.78;4.30;;;;;;;16.76;67.87;94943.50;5116641;28;20282;-71
2023/06/08 05:55:58;;;;;;;7.20;4.38;;;;;;;16.80;67.54;94938.72;5116088;28;20214;-71
2023/06/08 05:58:25;;;;;;;6.20;4.60;;;;;;;16.86;66.62;94942.72;5114377;28;20214;-71
2023/06/08 06:00:53;;;;;;;5.60;4.90;;;;;;;16.88;66.52;94945.09;5116154;28;20187;-71
2023/06/08 06:03:22;;;;;;;7.18;4.60;;;;;;;16.88;66.32;94936.72;5115355;28;20307;-70
2023/06/08 06:05:50;;;;;;;6.05;5.25;;;;;;;16.88;67.40;94939.50;5116357;28;20184;-70
2023/06/08 06:08:19;;;;;;;7.35;4.65;;;;;;;16.89;67.31;94936.34;5098357;28;20192;-70
2023/06/08 06:10:47;;;;;;;5.68;4.72;;;;;;;16.94;66.87;94932.38;5115358;28;20592;-70
2023/06/08 06:13:15;;;;;;;7.70;3.97;;;;;;;16.98;66.86;94936.72;5115366;28;20193;-70
2023/06/08 06:15:43;;;;;;;5.60;4.45;;;;;;;17.04;67.41;94928.78;5115585;28;20211;-69
2023/06/08 06:18:11;;;;;;;6.57;4.65;;;;;;;17.12;66.57;94938.72;5116121;28;20551;-70
2023/06/08 06:20:39;;;;;;;7.25;4.22;;;;;;;17.13;65.39;94934.75;5115755;28;20196;-70
2023/06/08 06:23:06;;;;;;;4.70;4.25;;;;;;;17.14;65.48;94933.56;5115792;28;20211;-69
2023/06/08 06:25:35;;;;;;;4.60;4.20;;;;;;;17.18;65.29;94941.94;5116375;28;20184;-70
2023/06/08 06:28:03;;;;;;;5.40;4.13;;;;;;;17.17;65.56;94938.31;5115205;28;20202;-70
2023/06/08 06:30:30;;;;;;;6.47;4.43;;;;;;;17.20;65.57;94936.75;5115488;28;20196;-70
2023/06/08 06:32:58;;;;;;;6.28;4.40;;;;;;;17.22;65.13;94929.59;5115620;28;20665;-73
2023/06/08 06:35:26;;;;;;;8.77;4.30;;;;;;;17.27;66.24;94936.72;5115035;28;20191;-70
2023/06/08 06:37:55;;;;;;;5.45;4.28;;;;;;;17.35;64.94;94927.16;5116149;28;20195;-69
2023/06/08 06:40:22;;;;;;;6.45;4.60;;;;;;;17.41;64.31;94922.78;5116046;28;20252;-70
2023/06/08 06:42:52;;;;;;;5.60;4.18;;;;;;;17.47;64.46;94926.78;5115576;28;20206;-69
2023/06/08 06:45:20;;;;;;;7.53;4.72;;;;;;;17.51;64.36;94927.56;5114407;28;20203;-70
2023/06/08 06:47:48;;;;;;;6.18;4.22;;;;;;;17.58;64.47;94923.16;5115331;28;20604;-69
2023/06/08 06:50:16;;;;;;;5.63;4.47;;;;;;;17.63;63.59;94919.97;5115771;28;20180;-69
2023/06/08 06:52:43;;;;;;;5.63;4.80;;;;;;;17.64;63.80;94918.75;5115721;28;20202;-69
2023/06/08 06:55:11;;;;;;;8.25;4.35;;;;;;;17.66;63.08;94919.16;5114699;28;20199;-69
2023/06/08 06:57:40;;;;;;;5.85;4.45;;;;;;;17.68;63.57;94916.75;5114691;28;20192;-70
2023/06/08 07:00:13;;;;;;;5.55;4.40;;;;;;;17.72;63.77;94915.56;5115356;28;20256;-69
2023/06/08 07:02:44;;;;;;;4.47;4.03;;;;;;;17.77;63.29;94915.16;5114370;28;20257;-69
2023/06/08 07:05:14;;;;;;;5.30;4.30;;;;;;;17.84;63.64;94908.78;5114346;28;20203;-70
2023/06/08 07:07:42;;;;;;;5.30;4.25;;;;;;;17.90;63.37;94909.13;5115574;28;20187;-70
2023/06/08 07:10:10;;;;;;;4.00;3.58;;;;;;;17.94;63.45;94907.16;5115600;28;20205;-69
2023/06/08 07:12:37;;;;;;;4.18;3.78;;;;;;;17.98;63.52;94910.72;5115652;28;20604;-70
2023/06/08 07:15:08;;;;;;;4.72;3.80;;;;;;;18.03;63.12;94901.91;5115540;28;20184;-69
2023/06/08 07:17:42;;;;;;;5.60;4.30;;;;;;;18.10;62.98;94904.69;5114394;28;20199;-69
2023/06/08 07:20:12;;;;;;;6.65;3.92;;;;;;;18.16;61.95;94897.50;5114900;28;20190;-70
2023/06/08 07:22:40;;;;;;;4.93;4.28;;;;;;;18.21;61.49;94893.47;5114569;28;20184;-69
2023/06/08 07:25:10;;;;;;;4.63;3.80;;;;;;;18.30;62.84;94893.84;5113799;28;20235;-69
2023/06/08 07:27:38;;;;;;;4.65;4.15;;;;;;;18.37;61.82;94896.56;5115405;28;20195;-69
2023/06/08 07:30:07;;;;;;;5.40;4.15;;;;;;;18.38;61.49;94898.16;5114800;28;20191;-69
2023/06/08 07:32:34;;;;;;;5.30;4.10;;;;;;;18.41;61.38;94890.94;5115018;28;20199;-70
2023/06/08 07:35:07;;;;;;;5.63;4.15;;;;;;;18.45;61.71;94894.53;5115000;28;20181;-70
2023/06/08 07:37:36;;;;;;;7.22;4.93;;;;;;;18.55;62.65;94896.47;5114998;28;20191;-69
2023/06/08 07:40:06;;;;;;;5.95;4.80;;;;;;;18.60;61.63;94892.47;5115513;28;20184;-69
2023/06/08 07:42:33;;;;;;;5.65;4.45;;;;;;;18.62;62.04;94888.03;5114523;28;20199;-70
2023/06/08 07:45:00;;;;;;;4.93;4.15;;;;;;;18.63;61.67;94878.47;5114070;28;20216;-70
2023/06/08 07:47:28;;;;;;;6.22;4.47;;;;;;;18.67;62.14;94879.22;5114929;28;20192;-69
2023/06/08 07:49:55;;;;;;;5.07;3.90;;;;;;;18.72;62.21;94887.19;5114982;28;20261;-71
2023/06/08 07:52:28;;;;;;;5.07;4.57;;;;;;;18.78;61.97;94884.78;5114301;28;20203;-71
2023/06/08 07:54:55;;;;;;;5.47;4.30;;;;;;;18.84;62.13;94877.53;5115085;28;20203;-69
2023/06/08 07:57:22;;;;;;;5.95;4.22;;;;;;;18.90;61.93;94880.69;5097172;28;20195;-69
2023/06/08 07:59:50;;;;;;;5.50;4.75;;;;;;;19.00;63.02;94877.03;5115043;28;20199;-70
2023/06/08 08:02:19;;;;;;;4.60;4.10;;;;;;;19.09;62.54;94882.91;5118914;28;20181;-69
2023/06/08 08:04:47;;;;;;;5.05;4.65;;;;;;;19.18;61.60;94879.66;5118643;28;20214;-69
2023/06/08 08:07:17;;;;;;;5.20;4.32;;;;;;;19.25;63.22;94885.19;5117735;28;20202;-69
2023/06/08 08:09:47;;;;;;;5.95;4.20;;;;;;;19.37;62.62;94875.50;5118712;28;20266;-70
2023/06/08 08:12:15;;;;;;;4.47;4.07;;;;;;;19.42;62.43;94877.81;5118724;28;20196;-70
2023/06/08 08:14:43;;;;;;;6.70;4.13;;;;;;;19.52;62.32;94878.94;5118267;28;20184;-69
2023/06/08 08:17:10;;;;;;;4.95;4.55;;;;;;;19.66;63.02;94873.22;5117150;28;20207;-70
2023/06/08 08:19:40;;;;;;;5.43;4.47;;;;;;;19.74;62.21;94876.72;5118433;28;20221;-70
2023/06/08 08:22:08;;;;;;;6.78;4.43;;;;;;;19.80;61.47;94875.84;5117512;28;20203;-70
2023/06/08 08:24:39;;;;;;;4.32;3.92;;;;;;;19.89;62.29;94870.53;5117890;28;20235;-70
2023/06/08 08:27:10;;;;;;;4.63;4.00;;;;;;;19.98;62.19;94869.25;5118273;28;20216;-69
2023/06/08 08:29:40;;;;;;;8.55;4.50;;;;;;;20.05;62.72;94875.56;5117458;28;20242;-72
2023/06/08 08:32:08;;;;;;;8.48;4.47;;;;;;;20.15;61.55;94859.81;5117944;28;20669;-70
2023/06/08 08:34:37;;;;;;;5.53;4.80;;;;;;;20.20;61.41;94874.16;5117428;28;20192;-70
2023/06/08 08:37:05;;;;;;;6.13;4.70;;;;;;;20.24;60.90;94862.13;5118050;28;20487;-71
2023/06/08 08:39:33;;;;;;;4.68;4.28;;;;;;;20.28;61.35;94858.06;5117794;28;20188;-70
2023/06/08 08:42:06;;;;;;;6.03;4.55;;;;;;;20.34;62.17;94861.19;5117892;28;20200;-69
2023/06/08 08:44:39;;;;;;;6.18;4.90;;;;;;;20.42;61.08;94862.66;5117869;28;20203;-69
2023/06/08 08:47:10;;;;;;;5.97;4.60;;;;;;;20.47;60.68;94865.00;5117518;28;20245;-69
2023/06/08 08:49:42;;;;;;;4.55;4.15;;;;;;;20.54;61.66;94864.91;5117113;28;20208;-69
2023/06/08 08:52:10;;;;;;;4.50;4.10;;;;;;;20.60;60.21;94862.44;5117370;27;20219;-69
2023/06/08 08:54:38;;;;;;;5.35;4.35;;;;;;;20.62;61.61;94860.78;5116553;28;20245;-69
2023/06/08 08:57:08;;;;;;;4.68;4.18;;;;;;;20.73;62.55;94862.63;5117626;27;20190;-70
2023/06/08 08:59:42;;;;;;;5.40;4.75;;;;;;;20.85;62.39;94862.84;5116726;28;20188;-69
2023/06/08 09:02:10;;;;;;;7.30;4.50;;;;;;;20.98;63.33;94862.25;5116914;28;20203;-69
2023/06/08 09:04:38;;;;;;;5.40;4.90;;;;;;;20.94;60.60;94855.91;5116564;28;20203;-69
2023/06/08 09:07:06;;;;;;;6.03;5.03;;;;;;;20.92;62.82;94850.75;5116381;28;20191;-69
2023/06/08 09:09:35;;;;;;;5.50;5.00;;;;;;;20.90;60.72;94853.16;5117475;28;20180;-70
2023/06/08 09:12:05;;;;;;;5.93;4.88;;;;;;;20.89;61.61;94841.16;5115853;28;20235;-70
2023/06/08 09:14:32;;;;;;;8.25;7.40;;;;;;;20.90;62.63;94853.16;5116974;28;20494;-70
2023/06/08 09:17:06;;;;;;;6.53;5.28;;;;;;;20.94;62.34;94839.09;5115825;28;20204;-70
2023/06/08 09:19:40;;;;;;;8.27;4.90;;;;;;;21.06;60.37;94833.69;5116504;28;20187;-70
2023/06/08 09:22:09;;;;;;;5.22;4.57;;;;;;;21.05;62.21;94832.09;5099563;28;20635;-71
2023/06/08 09:24:49;;;;;;;4.82;4.50;;;;;;;21.14;62.36;94837.94;5115634;28;20299;-71
2023/06/08 09:27:26;;;;;;;4.90;4.43;;;;;;;21.22;60.24;94835.81;5117027;28;20183;-71
2023/06/08 09:29:57;;;;;;;5.00;4.50;;;;;;;21.29;60.85;94830.06;5116200;28;20199;-71
2023/06/08 09:32:31;;;;;;;6.75;4.35;;;;;;;21.38;60.02;94826.72;5099336;28;20237;-71
2023/06/08 09:35:02;;;;;;;5.28;4.78;;;;;;;21.51;60.36;94829.72;5115930;28;20282;-71
2023/06/08 09:37:32;;;;;;;5.25;4.07;;;;;;;21.57;61.58;94817.56;5117066;28;20237;-71
2023/06/08 09:40:01;;;;;;;7.43;4.45;;;;;;;21.56;60.20;94823.59;5116299;28;20264;-70
2023/06/08 09:42:43;;;;;;;7.72;4.90;;;;;;;21.70;60.79;94820.50;5115849;28;20196;-70
2023/06/08 09:45:14;;;;;;;5.47;4.53;;;;;;;21.78;60.81;94816.31;5115320;28;20215;-71
2023/06/08 09:47:44;;;;;;;5.97;5.38;;;;;;;21.85;59.42;94819.00;5116599;28;20198;-70
2023/06/08 09:50:13;;;;;;;5.20;4.70;;;;;;;21.93;57.12;94816.81;5115955;28;20248;-71
2023/06/08 09:52:50;;;;;;;5.00;4.50;;;;;;;21.97;57.42;94816.75;5115688;28;20188;-71
2023/06/08 09:55:20;;;;;;;5.88;4.75;;;;;;;21.96;58.42;94809.56;5116454;28;20179;-71
2023/06/08 09:57:52;;;;;;;4.78;4.45;;;;;;;22.07;57.96;94805.28;5116192;28;20653;-70
2023/06/08 10:00:25;;;;;;;6.00;4.40;;;;;;;22.23;57.43;94806.63;5116399;28;20206;-71
2023/06/08 10:03:09;;;;;;;4.13;3.83;;;;;;;22.22;54.76;94805.03;5117010;28;20180;-71
2023/06/08 10:05:44;;;;;;;4.80;4.40;;;;;;;22.22;56.61;94811.44;5115235;28;20283;-70
2023/06/08 10:08:14;;;;;;;4.65;3.83;;;;;;;22.27;56.68;94812.94;5114992;28;20543;-71
2023/06/08 10:10:42;;;;;;;4.80;4.40;;;;;;;22.39;56.88;94803.84;5115962;28;20199;-70
2023/06/08 10:13:11;;;;;;;5.43;4.25;;;;;;;22.49;58.44;94788.75;5116137;28;20222;-70
2023/06/08 10:15:39;;;;;;;4.60;4.20;;;;;;;22.55;57.47;94791.84;5115813;28;20191;-71
2023/06/08 10:18:07;;;;;;;4.40;4.07;;;;;;;22.63;55.11;94782.00;5115200;28;20198;-70
2023/06/08 10:20:36;;;;;;;4.22;3.83;;;;;;;22.64;56.24;94782.78;5115107;28;20203;-70
2023/06/08 10:23:04;;;;;;;5.50;4.25;;;;;;;22.66;55.81;94781.13;5113870;28;20619;-70
2023/06/08 10:25:34;;;;;;;4.47;4.07;;;;;;;22.75;56.11;94777.69;5095578;28;20228;-70
2023/06/08 10:28:06;;;;;;;4.85;4.35;;;;;;;22.78;54.00;94771.22;5095297;28;20187;-71
2023/06/08 10:30:39;;;;;;;4.80;4.15;;;;;;;22.81;54.96;94773.94;5095342;28;20184;-71
2023/06/08 10:33:12;;;;;;;10.25;9.27;;;;;;;22.88;53.82;94778.59;5095248;28;20183;-70
2023/06/08 10:35:41;;;;;;;8.48;7.13;;;;;;;22.97;55.40;94764.72;5094532;28;20207;-71
2023/06/08 10:38:12;;;;;;;7.25;4.88;;;;;;;23.05;55.67;94766.09;5095039;28;20210;-71
2023/06/08 10:40:45;;;;;;;5.18;4.78;;;;;;;23.16;52.95;94765.81;5094180;28;20189;-70
2023/06/08 10:43:13;;;;;;;4.03;3.72;;;;;;;23.22;53.98;94769.69;5095291;28;20203;-70
2023/06/08 10:45:44;;;;;;;3.78;3.47;;;;;;;23.31;52.82;94757.78;5095188;28;20196;-69
2023/06/08 10:48:18;;;;;;;5.00;3.90;;;;;;;23.35;52.80;94758.50;5094298;28;20290;-69
2023/06/08 10:50:47;;;;;;;5.10;4.07;;;;;;;23.35;51.51;94752.88;5094498;28;20196;-70
2023/06/08 10:53:20;;;;;;;4.25;3.95;;;;;;;23.41;51.55;94753.13;5095257;28;20195;-70
2023/06/08 10:55:51;;;;;;;4.20;3.90;;;;;;;23.48;52.95;94750.09;5094408;28;20196;-70
2023/06/08 10:58:19;;;;;;;4.53;4.13;;;;;;;23.61;51.78;94742.50;5094394;28;20206;-70
2023/06/08 11:00:49;;;;;;;4.88;3.90;;;;;;;23.59;52.88;94744.97;5094380;28;20193;-71
2023/06/08 11:03:21;;;;;;;5.40;3.92;;;;;;;23.65;52.98;94743.19;5094210;28;20196;-70
2023/06/08 11:05:53;;;;;;;4.22;3.67;;;;;;;23.68;50.31;94733.09;5094926;28;20259;-69
2023/06/08 11:08:20;;;;;;;4.70;3.67;;;;;;;23.75;50.67;94735.72;5095234;28;20219;-69
2023/06/08 11:10:56;;;;;;;4.25;3.80;;;;;;;23.76;50.20;94731.66;5094365;28;20218;-71
2023/06/08 11:13:25;;;;;;;4.20;3.80;;;;;;;23.80;51.07;94726.69;5094174;28;20317;-71
2023/06/08 11:15:54;;;;;;;4.32;3.63;;;;;;;23.84;50.32;94724.56;5095047;28;20192;-70
2023/06/08 11:18:23;;;;;;;5.97;3.42;;;;;;;23.83;50.35;94716.56;5094931;28;20228;-70
2023/06/08 11:20:52;;;;;;;5.78;4.57;;;;;;;23.84;50.00;94718.94;5094518;28;20197;-69
2023/06/08 11:23:21;;;;;;;4.65;3.50;;;;;;;23.87;50.09;94714.44;5096012;28;20196;-69
2023/06/08 11:25:51;;;;;;;4.00;3.70;;;;;;;23.93;49.19;94707.81;5114508;28;20222;-69
2023/06/08 11:28:19;;;;;;;4.00;3.63;;;;;;;24.07;52.11;94705.78;5115483;28;20196;-70
2023/06/08 11:30:47;;;;;;;4.07;3.72;;;;;;;24.17;51.19;94699.81;5114621;28;20194;-70
2023/06/08 11:33:18;;;;;;;4.47;3.63;;;;;;;24.24;48.76;94702.41;5114353;28;20199;-70
2023/06/08 11:35:51;;;;;;;4.85;3.50;;;;;;;24.26;48.51;94699.16;5118829;28;20180;-70
2023/06/08 11:38:25;;;;;;;4.35;4.05;;;;;;;24.30;52.01;94688.56;5119308;28;20184;-71
2023/06/08 11:41:00;;;;;;;4.20;3.80;;;;;;;24.41;51.02;94685.41;5118462;28;20299;-69
2023/06/08 11:43:29;;;;;;;4.72;4.22;;;;;;;24.49;48.65;94689.56;5119035;28;20262;-71
2023/06/08 11:45:59;;;;;;;4.07;3.53;;;;;;;24.51;47.83;94687.09;5118921;28;20204;-71